Currently 66°F in Fallbrook, California, USA
66°F
66°F / 47°F
2 mph SW
0.00"
Monday, January 22, 2018 12:01 PM PST

Fallbrook, California Weather Summary
Last 36 Hours

Temperature Winds Hourly Humidity Dewpoint
Time Report Norm Report Norm Max Gusts Precip. Rpt. Norm Rpt. Norm Pressure
1,2Mon 12:01 PM  66.0°F  66°F  2 mph SW  2 mph  4 mph  0.00"  23%  50%  26°F  46°F  30.22"
Mon 12:00 PM  65.9°F  66°F  2 mph W  2 mph  4 mph  0.00"  23%  50%  25°F  46°F  30.22"
Mon 11:00 AM  62.5°F  64°F  1 mph W  2 mph  5 mph  0.00"  33%  54%  32°F  46°F  30.26"
Mon 10:00 AM  59.2°F  61°F  2 mph N  2 mph  5 mph  0.00"  39%  59%  33°F  46°F  30.28"
Mon 09:00 AM  55.1°F  57°F  calm  1 mph  8 mph  0.00"  44%  64%  33°F  44°F  30.28"
Mon 08:00 AM  50.0°F  53°F  5 mph N  1 mph  9 mph  0.00"  50%  67%  32°F  42°F  30.29"
Mon 07:00 AM  47.7°F  52°F  4 mph SW  2 mph  10 mph  0.00"  56%  67%  32°F  41°F  30.27"
Mon 06:00 AM  47.0°F  52°F  4 mph NE  2 mph  7 mph  0.00"  58%  68%  32°F  41°F  30.26"
Mon 05:00 AM  47.4°F  52°F  calm  2 mph  8 mph  0.00"  60%  68%  34°F  41°F  30.26"
Mon 04:00 AM  48.9°F  52°F  6 mph N  1 mph  8 mph  0.00"  54%  68%  32°F  42°F  30.26"
3Mon 03:25 AM  46.8°F  53°F  4 mph SE  1 mph  6 mph  ----  61%  69%  34°F  42°F  30.26"
Mon 03:00 AM  49.0°F  53°F  calm  1 mph  7 mph  0.00"  57%  69%  34°F  42°F  30.27"
Mon 02:00 AM  50.3°F  53°F  5 mph E  1 mph  9 mph  0.00"  54%  70%  34°F  43°F  30.27"
Mon 01:00 AM  47.9°F  53°F  calm  1 mph  4 mph  0.00"  63%  70%  35°F  43°F  30.27"
Mon 12:00 AM  47.1°F  54°F  1 mph NE  1 mph  5 mph  0.00"  68%  71%  37°F  44°F  30.28"
Sun 11:00 PM  47.7°F  54°F  2 mph NE  1 mph  5 mph  0.00"  69%  71%  38°F  45°F  30.29"
Sun 10:00 PM  49.1°F  54°F  calm  1 mph  3 mph  0.00"  74%  72%  41°F  45°F  30.29"
Sun 09:00 PM  50.7°F  55°F  calm  1 mph  4 mph  0.00"  70%  73%  41°F  46°F  30.29"
Sun 08:00 PM  50.3°F  56°F  calm  1 mph  none  0.00"  73%  72%  42°F  47°F  30.29"
Sun 07:00 PM  51.7°F  56°F  calm  1 mph  none  0.00"  68%  71%  41°F  47°F  30.29"
Sun 06:00 PM  52.5°F  58°F  calm  1 mph  none  0.00"  65%  69%  40°F  47°F  30.28"
Sun 05:00 PM  55.7°F  61°F  calm  1 mph  6 mph  0.00"  58%  64%  40°F  48°F  30.27"
Sun 04:00 PM  59.9°F  64°F  2 mph W  2 mph  6 mph  0.00"  50%  56%  41°F  48°F  30.26"
Sun 03:00 PM  60.8°F  66°F  3 mph SW  3 mph  8 mph  0.00"  52%  53%  42°F  48°F  30.25"
Sun 02:00 PM  62.1°F  67°F  3 mph S  3 mph  7 mph  0.00"  50%  50%  43°F  47°F  30.25"
Sun 01:00 PM  60.8°F  67°F  calm  3 mph  5 mph  0.00"  45%  47%  39°F  46°F  30.27"
Sun 12:00 PM  59.9°F  66°F  calm  2 mph  6 mph  0.00"  53%  49%  42°F  46°F  30.29"
Sun 11:00 AM  58.5°F  64°F  calm  2 mph  4 mph  0.00"  57%  52%  43°F  46°F  30.32"
Sun 10:00 AM  54.6°F  61°F  calm  2 mph  3 mph  0.00"  62%  57%  41°F  46°F  30.32"
Sun 09:00 AM  49.9°F  57°F  calm  1 mph  2 mph  0.00"  65%  62%  38°F  44°F  30.31"
Sun 08:00 AM  44.3°F  53°F  calm  1 mph  7 mph  0.00"  78%  65%  38°F  41°F  30.29"
Sun 07:00 AM  42.5°F  52°F  calm  1 mph  4 mph  0.00"  82%  65%  37°F  40°F  30.27"
Sun 06:00 AM  43.3°F  52°F  3 mph NE  1 mph  5 mph  0.00"  84%  65%  39°F  40°F  30.24"
Sun 05:00 AM  44.0°F  52°F  calm  1 mph  5 mph  0.00"  85%  65%  40°F  41°F  30.23"
Sun 04:00 AM  46.4°F  53°F  2 mph NE  1 mph  4 mph  0.00"  79%  66%  40°F  41°F  30.22"
Sun 03:00 AM  45.6°F  53°F  calm  1 mph  4 mph  0.00"  86%  67%  41°F  42°F  30.22"
Sun 02:00 AM  46.7°F  53°F  2 mph E  1 mph  4 mph  0.00"  86%  68%  43°F  42°F  30.21"
Sun 01:00 AM  46.9°F  53°F  calm  1 mph  6 mph  0.00"  86%  68%  43°F  42°F  30.21"

  1. Current weather data. No green row appears if the current weather data is also the high or low for the current day.
  2. High temperature for the current day.
  3. Low temperature for the current day.

The Fallbrook weather pages are a service of WeatherCurrents. Fallbrook, California is located in northern San Diego County, close to I15 and Camp Pendleton, and is home to ranches, avocado and citrus groves, and plant nurseries.
Copyright ©Mon Jan 22 12:02:09 PST 2018  WeatherCurrents. All rights reserved. - Submit questions and comments - Privacy Policy

This page automatically refreshes every 10 minutes.